Time;durP1;ratioP1;P1;durP2;ratioP2;P2;SDS_P1;SDS_P2;PMS_P1;PMS_P2;Temp;Humidity;BMP_temperature;BMP_pressure;BME280_temperature;BME280_humidity;BME280_pressure;Samples;Min_cycle;Max_cycle;Signal;HPM_P1;HPM_P2
2022/09/25 00:00:02;;;;;;;26.52;14.90;;;;;;;9.57;100.00;98647.38;4292521;33;20071;-69
2022/09/25 00:02:50;;;;;;;28.42;15.32;;;;;;;9.62;100.00;98660.88;4295917;33;20037;-68
2022/09/25 00:05:17;;;;;;;28.85;13.75;;;;;;;9.56;100.00;98686.09;4296435;33;20156;-69
2022/09/25 00:07:43;;;;;;;23.83;13.45;;;;;;;9.63;100.00;98684.00;4307079;33;20386;-68
2022/09/25 00:10:09;;;;;;;25.42;15.13;;;;;;;9.31;100.00;98638.25;4310945;33;20075;-69
2022/09/25 00:12:36;;;;;;;27.37;14.35;;;;;;;9.52;100.00;98672.31;4336618;33;20422;-69
2022/09/25 00:15:04;;;;;;;25.02;14.75;;;;;;;9.59;100.00;98677.53;4377351;32;20434;-69
2022/09/25 00:17:32;;;;;;;24.00;13.68;;;;;;;9.32;100.00;98629.09;4383523;32;20031;-74
2022/09/25 00:19:59;;;;;;;23.40;13.98;;;;;;;9.38;100.00;98618.19;4383128;32;20449;-71
2022/09/25 00:22:26;;;;;;;25.37;13.52;;;;;;;9.57;100.00;98653.59;4385210;32;20047;-68
2022/09/25 00:24:53;;;;;;;23.92;13.38;;;;;;;9.56;100.00;98668.09;4384846;32;20056;-68
2022/09/25 00:27:19;;;;;;;23.62;12.95;;;;;;;9.63;100.00;98667.87;4384987;32;20046;-69
2022/09/25 00:29:46;;;;;;;23.38;13.88;;;;;;;9.58;100.00;98670.53;4382158;32;20055;-73
2022/09/25 00:32:13;;;;;;;21.58;13.07;;;;;;;9.57;100.00;98663.50;4413845;32;20046;-69
2022/09/25 00:34:40;;;;;;;25.02;14.40;;;;;;;9.71;100.00;98659.37;4415176;32;20071;-70
2022/09/25 00:37:06;;;;;;;22.20;12.60;;;;;;;9.67;100.00;98663.62;4427072;32;20405;-69
2022/09/25 00:39:33;;;;;;;23.85;13.15;;;;;;;9.81;100.00;98656.78;4430383;32;20030;-68
2022/09/25 00:41:59;;;;;;;28.95;15.57;;;;;;;9.86;100.00;98655.22;4423754;32;20078;-70
2022/09/25 00:44:55;;;;;;;26.55;13.93;;;;;;;9.59;100.00;98656.03;4424946;32;20053;-71
2022/09/25 00:47:44;;;;;;;29.15;13.98;;;;;;;9.76;100.00;98656.72;4427949;32;20076;-70
2022/09/25 00:50:45;;;;;;;24.50;12.95;;;;;;;9.73;100.00;98649.19;4432158;32;20042;-69
2022/09/25 00:53:20;;;;;;;26.40;12.93;;;;;;;9.52;100.00;98605.13;4429620;32;20042;-69
2022/09/25 00:55:48;;;;;;;24.98;13.50;;;;;;;9.67;100.00;98652.87;4399541;32;20480;-69
2022/09/25 00:58:20;;;;;;;20.60;13.10;;;;;;;9.47;100.00;98620.41;4397668;32;20089;-68
2022/09/25 01:00:46;;;;;;;20.52;12.85;;;;;;;9.59;100.00;98639.91;4381783;32;20034;-73
2022/09/25 01:03:13;;;;;;;23.17;12.90;;;;;;;9.67;100.00;98652.87;4354448;32;20070;-68
2022/09/25 01:05:42;;;;;;;20.25;12.23;;;;;;;9.39;100.00;98619.78;4354290;32;20031;-69
2022/09/25 01:08:18;;;;;;;24.12;14.30;;;;;;;9.61;100.00;98653.91;4355379;32;20194;-69
2022/09/25 01:10:45;;;;;;;20.12;12.13;;;;;;;9.36;100.00;98614.09;4367097;32;20047;-73
2022/09/25 01:13:13;;;;;;;19.83;12.85;;;;;;;9.67;100.00;98663.62;4369420;32;20296;-68
2022/09/25 01:16:06;;;;;;;25.55;12.60;;;;;;;9.42;100.00;98608.53;4368692;32;20065;-69
2022/09/25 01:18:41;;;;;;;26.65;12.48;;;;;;;9.75;100.00;98649.75;4354124;32;20039;-71
2022/09/25 01:21:37;;;;;;;23.30;13.27;;;;;;;9.50;100.00;98634.16;4369164;32;20056;-69
2022/09/25 01:24:07;;;;;;;25.00;13.00;;;;;;;9.58;100.00;98633.69;4326879;33;20452;-73
2022/09/25 01:27:00;;;;;;;27.95;15.90;;;;;;;9.52;100.00;98639.28;4338655;33;20927;-69
2022/09/25 01:29:36;;;;;;;26.77;14.23;;;;;;;9.43;100.00;98645.09;4338116;33;20418;-70
2022/09/25 01:32:20;;;;;;;24.17;14.40;;;;;;;9.40;100.00;98632.16;4342551;32;20053;-69
2022/09/25 01:35:06;;;;;;;22.52;13.60;;;;;;;9.12;100.00;98608.19;4348401;32;20059;-70
2022/09/25 01:37:39;;;;;;;23.70;13.43;;;;;;;9.14;100.00;98598.00;4354880;32;20039;-69
2022/09/25 01:40:32;;;;;;;24.17;14.02;;;;;;;9.09;100.00;98599.59;4349838;32;20099;-69
2022/09/25 01:43:22;;;;;;;21.98;12.55;;;;;;;9.14;100.00;98612.22;4352393;32;20058;-73
2022/09/25 01:45:58;;;;;;;22.80;13.20;;;;;;;8.99;100.00;98620.13;4352857;32;20083;-69
2022/09/25 01:48:27;;;;;;;24.02;12.85;;;;;;;9.32;100.00;98638.00;4376415;32;20026;-69
2022/09/25 01:51:04;;;;;;;25.75;13.25;;;;;;;9.48;100.00;98646.19;4380186;32;20064;-69
2022/09/25 01:53:40;;;;;;;22.98;12.02;;;;;;;9.36;100.00;98641.78;4383917;32;20138;-69
2022/09/25 01:56:14;;;;;;;21.23;12.45;;;;;;;9.08;100.00;98606.00;4396636;32;20035;-69
2022/09/25 01:58:53;;;;;;;19.55;11.85;;;;;;;9.36;100.00;98652.53;4383211;32;20092;-69
2022/09/25 02:01:26;;;;;;;21.58;13.02;;;;;;;9.03;100.00;98600.56;4390804;32;20056;-70
2022/09/25 02:03:59;;;;;;;20.15;12.35;;;;;;;9.04;100.00;98607.56;4418364;32;20034;-69
2022/09/25 02:06:26;;;;;;;22.20;12.00;;;;;;;9.21;100.00;98657.72;4413688;32;20870;-69
2022/09/25 02:09:03;;;;;;;21.70;12.70;;;;;;;8.89;100.00;98604.69;4413435;32;20030;-69
2022/09/25 02:11:44;;;;;;;22.95;13.48;;;;;;;9.25;100.00;98645.41;4424078;32;20085;-69
2022/09/25 02:14:25;;;;;;;20.15;12.32;;;;;;;9.11;100.00;98638.78;4430474;32;20038;-69
2022/09/25 02:16:58;;;;;;;27.10;13.50;;;;;;;8.96;100.00;98596.44;4398497;32;20042;-70
2022/09/25 02:22:18;;;;;;;24.83;12.20;;;;;;;9.31;100.00;98649.78;4398121;32;20201;-70
2022/09/25 02:25:10;;;;;;;28.15;13.88;;;;;;;9.27;100.00;98629.87;4398238;32;20039;-69
2022/09/25 02:27:37;;;;;;;20.97;12.47;;;;;;;9.08;100.00;98595.25;4398193;32;20055;-70
2022/09/25 02:30:04;;;;;;;21.65;13.13;;;;;;;9.30;100.00;98632.03;4397559;32;20389;-70
2022/09/25 02:32:31;;;;;;;21.15;12.65;;;;;;;9.22;100.00;98638.69;4367493;32;20043;-70
2022/09/25 02:34:59;;;;;;;22.10;12.63;;;;;;;9.17;100.00;98627.06;4352588;32;20061;-70
2022/09/25 02:37:26;;;;;;;23.05;12.10;;;;;;;9.19;100.00;98636.50;4351298;32;20061;-74
2022/09/25 02:39:57;;;;;;;25.62;13.30;;;;;;;9.07;100.00;98584.78;4351689;32;20707;-68
2022/09/25 02:42:38;;;;;;;19.80;11.95;;;;;;;9.06;100.00;98578.59;4353441;32;20523;-69
2022/09/25 02:45:33;;;;;;;20.58;12.13;;;;;;;9.47;100.00;98625.78;4336113;33;20431;-70
2022/09/25 02:48:11;;;;;;;21.85;12.82;;;;;;;9.62;100.00;98617.88;4337656;33;20101;-69
2022/09/25 02:51:01;;;;;;;17.92;11.02;;;;;;;9.52;100.00;98617.78;4325428;33;20066;-71
2022/09/25 02:54:00;;;;;;;24.17;12.90;;;;;;;9.25;100.00;98570.19;4338242;33;20051;-69
2022/09/25 02:56:39;;;;;;;23.42;12.25;;;;;;;9.21;100.00;98552.97;4338208;33;20358;-69
2022/09/25 02:59:15;;;;;;;26.23;13.77;;;;;;;9.39;100.00;98608.22;4337428;33;20079;-69
2022/09/25 03:01:42;;;;;;;25.17;14.40;;;;;;;9.16;100.00;98561.78;4334879;33;20035;-70
2022/09/25 03:04:10;;;;;;;30.48;15.73;;;;;;;9.18;100.00;98564.22;4337621;33;20511;-69
2022/09/25 03:06:38;;;;;;;23.95;15.52;;;;;;;9.40;100.00;98599.91;4348513;32;20053;-69
2022/09/25 03:09:08;;;;;;;29.35;16.15;;;;;;;9.11;100.00;98568.97;4354171;32;20058;-69
2022/09/25 03:11:42;;;;;;;25.12;15.13;;;;;;;9.25;100.00;98607.81;4336848;33;20043;-68
2022/09/25 03:14:09;;;;;;;22.35;14.63;;;;;;;9.15;100.00;98619.25;4338127;33;20073;-69
2022/09/25 03:16:46;;;;;;;26.37;13.40;;;;;;;8.68;100.00;98572.22;4357204;32;20065;-69
2022/09/25 03:19:13;;;;;;;23.10;13.35;;;;;;;9.27;100.00;98617.25;4367969;32;20389;-69
2022/09/25 03:21:40;;;;;;;21.62;13.95;;;;;;;9.19;100.00;98585.47;4365711;32;20047;-70
2022/09/25 03:24:07;;;;;;;22.40;12.73;;;;;;;9.35;100.00;98612.47;4350850;32;20092;-69
2022/09/25 03:26:34;;;;;;;23.80;12.48;;;;;;;9.39;100.00;98611.72;4352170;32;20039;-69
2022/09/25 03:29:01;;;;;;;23.62;12.70;;;;;;;9.39;100.00;98600.97;4352674;33;20036;-70
2022/09/25 03:31:29;;;;;;;21.15;12.35;;;;;;;9.11;100.00;98574.31;4351805;33;20093;-69
2022/09/25 03:33:56;;;;;;;21.42;12.02;;;;;;;8.76;100.00;98529.87;4335162;33;20397;-69
2022/09/25 03:36:30;;;;;;;30.42;14.07;;;;;;;8.84;100.00;98564.34;4345659;32;20464;-70
2022/09/25 03:38:58;;;;;;;22.02;12.75;;;;;;;8.90;100.00;98593.72;4352134;32;20185;-69
2022/09/25 03:41:27;;;;;;;24.42;12.32;;;;;;;8.91;100.00;98598.00;4350547;32;20039;-75
2022/09/25 03:43:55;;;;;;;26.27;13.15;;;;;;;8.81;100.00;98597.06;4349523;32;20870;-69
2022/09/25 03:46:25;;;;;;;22.80;12.80;;;;;;;8.77;100.00;98606.69;4348128;32;20381;-69
2022/09/25 03:48:52;;;;;;;22.70;12.73;;;;;;;8.62;100.00;98608.09;4352717;33;20044;-69
2022/09/25 03:51:19;;;;;;;19.52;12.82;;;;;;;8.53;100.00;98601.50;4339115;32;20348;-73
2022/09/25 03:53:47;;;;;;;26.73;13.45;;;;;;;8.22;100.00;98550.09;4330902;33;20486;-69
2022/09/25 03:56:17;;;;;;;34.90;13.60;;;;;;;8.48;100.00;98604.13;4346172;32;20173;-69
2022/09/25 03:58:43;;;;;;;24.27;13.40;;;;;;;8.27;100.00;98587.69;4381299;32;20504;-70
2022/09/25 04:01:10;;;;;;;31.33;14.35;;;;;;;8.29;100.00;98590.94;4381726;32;20061;-73
2022/09/25 04:03:38;;;;;;;25.52;13.82;;;;;;;8.35;100.00;98607.94;4380779;32;20061;-70
2022/09/25 04:06:06;;;;;;;26.40;13.68;;;;;;;7.80;100.00;98512.97;4382007;32;20074;-69
2022/09/25 04:08:34;;;;;;;30.00;14.05;;;;;;;8.14;100.00;98566.59;4381560;32;20035;-69
2022/09/25 04:11:02;;;;;;;25.85;13.32;;;;;;;8.31;100.00;98618.34;4349277;32;20073;-69
2022/09/25 04:13:35;;;;;;;24.37;12.93;;;;;;;8.05;100.00;98562.69;4366613;32;20039;-71
2022/09/25 04:16:09;;;;;;;20.98;12.82;;;;;;;8.09;100.00;98579.91;4366633;32;20125;-69
2022/09/25 04:18:36;;;;;;;30.02;13.55;;;;;;;8.23;100.00;98597.28;4369074;32;20039;-69
2022/09/25 04:21:05;;;;;;;25.48;13.73;;;;;;;7.97;100.00;98567.37;4369984;32;20043;-69
2022/09/25 04:23:32;;;;;;;21.27;13.35;;;;;;;8.23;100.00;98605.31;4368404;32;20404;-69
2022/09/25 04:25:58;;;;;;;29.60;14.77;;;;;;;8.24;100.00;98609.66;4398403;32;20990;-69
2022/09/25 04:28:25;;;;;;;25.08;15.15;;;;;;;7.94;100.00;98573.25;4400103;32;20433;-69
2022/09/25 04:30:52;;;;;;;25.52;15.43;;;;;;;7.81;100.00;98568.22;4399429;32;20187;-69
2022/09/25 04:36:04;;;;;;;27.15;15.20;;;;;;;8.10;100.00;98586.91;4398076;32;20174;-68
2022/09/25 04:38:31;;;;;;;26.60;13.07;;;;;;;8.21;100.00;98599.41;4398555;32;20060;-68
2022/09/25 04:41:00;;;;;;;26.27;13.90;;;;;;;8.28;100.00;98583.97;4399199;32;20039;-72
2022/09/25 04:43:28;;;;;;;25.98;14.30;;;;;;;8.23;100.00;98558.94;4414335;32;20092;-70
2022/09/25 04:45:54;;;;;;;28.20;14.80;;;;;;;8.36;100.00;98564.78;4414392;32;20022;-69
2022/09/25 04:48:21;;;;;;;26.58;13.43;;;;;;;8.45;100.00;98557.12;4415129;32;20049;-69
2022/09/25 04:50:49;;;;;;;27.83;16.40;;;;;;;8.71;100.00;98609.31;4414875;32;20047;-68
2022/09/25 04:53:17;;;;;;;24.12;15.52;;;;;;;8.65;100.00;98610.28;4412718;32;20038;-69
2022/09/25 04:55:45;;;;;;;39.83;16.87;;;;;;;8.70;100.00;98607.66;4414785;32;20771;-69
2022/09/25 04:58:11;;;;;;;28.85;16.45;;;;;;;8.81;100.00;98607.81;4430520;32;20179;-69
2022/09/25 05:00:39;;;;;;;28.33;15.77;;;;;;;8.81;100.00;98597.87;4397572;32;20072;-68
2022/09/25 05:03:05;;;;;;;26.40;14.25;;;;;;;8.86;100.00;98599.81;4385255;32;20116;-72
2022/09/25 05:05:32;;;;;;;31.12;15.30;;;;;;;8.64;100.00;98554.97;4399190;32;20055;-69
2022/09/25 05:08:00;;;;;;;35.65;16.75;;;;;;;8.60;100.00;98548.50;4383683;32;20039;-69
2022/09/25 05:10:30;;;;;;;26.00;13.88;;;;;;;8.92;100.00;98593.47;4382715;32;20068;-69
2022/09/25 05:13:01;;;;;;;28.70;14.93;;;;;;;9.16;100.00;98603.94;4384475;32;20444;-73
2022/09/25 05:15:30;;;;;;;33.45;14.82;;;;;;;8.88;100.00;98544.00;4383202;32;20027;-69
2022/09/25 05:18:01;;;;;;;30.80;14.35;;;;;;;8.99;100.00;98545.75;4384046;32;20069;-69
2022/09/25 05:20:27;;;;;;;28.12;14.25;;;;;;;9.18;100.00;98612.56;4382789;32;20053;-69
2022/09/25 05:22:57;;;;;;;24.17;14.32;;;;;;;8.97;100.00;98580.09;4383446;32;20031;-73
2022/09/25 05:25:25;;;;;;;22.90;13.43;;;;;;;9.21;100.00;98606.69;4351897;32;20047;-68
2022/09/25 05:27:54;;;;;;;31.42;14.43;;;;;;;9.00;100.00;98574.22;4344067;32;20050;-68
2022/09/25 05:30:21;;;;;;;25.73;15.07;;;;;;;9.27;100.00;98608.38;4350336;32;20177;-68
2022/09/25 05:32:49;;;;;;;31.87;16.50;;;;;;;9.28;100.00;98601.94;4372850;32;20096;-69
2022/09/25 05:35:21;;;;;;;39.72;15.73;;;;;;;9.00;100.00;98617.19;4369098;32;20048;-68
2022/09/25 05:37:48;;;;;;;26.73;16.02;;;;;;;9.02;100.00;98620.44;4386208;32;20061;-70
2022/09/25 05:40:16;;;;;;;26.83;15.73;;;;;;;9.06;100.00;98608.13;4390025;32;20070;-70
2022/09/25 05:42:43;;;;;;;26.48;15.75;;;;;;;9.30;100.00;98615.91;4393398;32;20470;-71
2022/09/25 05:45:14;;;;;;;34.65;16.55;;;;;;;9.47;100.00;98610.47;4397630;32;20926;-70
2022/09/25 05:47:41;;;;;;;27.52;16.62;;;;;;;9.31;100.00;98573.75;4395985;32;20047;-70
2022/09/25 05:50:09;;;;;;;31.83;16.35;;;;;;;9.57;100.00;98620.50;4396536;32;20094;-70
2022/09/25 05:52:37;;;;;;;26.20;15.15;;;;;;;9.40;100.00;98578.41;4398753;32;20083;-73
2022/09/25 05:55:05;;;;;;;25.50;15.50;;;;;;;9.75;100.00;98601.34;4360076;32;20137;-70
2022/09/25 05:57:32;;;;;;;24.05;15.80;;;;;;;9.96;100.00;98606.91;4357793;32;20065;-69
2022/09/25 05:59:59;;;;;;;31.27;16.23;;;;;;;10.07;100.00;98603.22;4364923;32;20069;-70
2022/09/25 06:02:25;;;;;;;31.95;15.52;;;;;;;9.79;100.00;98562.09;4370752;32;20072;-72
2022/09/25 06:04:52;;;;;;;27.55;15.93;;;;;;;10.16;100.00;98595.50;4406618;32;20060;-69
2022/09/25 06:07:19;;;;;;;29.95;16.87;;;;;;;9.96;100.00;98563.88;4413477;32;20056;-70
2022/09/25 06:09:45;;;;;;;27.33;16.37;;;;;;;9.96;100.00;98561.19;4410169;32;20061;-71
2022/09/25 06:12:11;;;;;;;32.35;14.82;;;;;;;9.66;100.00;98521.41;4398898;32;20100;-70
2022/09/25 06:14:39;;;;;;;33.83;16.48;;;;;;;9.71;100.00;98519.56;4361267;32;20057;-73
2022/09/25 06:17:07;;;;;;;28.92;16.95;;;;;;;10.07;100.00;98565.56;4361959;32;20059;-71
2022/09/25 06:19:34;;;;;;;29.58;16.87;;;;;;;10.12;100.00;98535.22;4365769;32;20065;-71
2022/09/25 06:22:00;;;;;;;27.90;17.10;;;;;;;10.39;100.00;98594.34;4358690;32;20055;-70
2022/09/25 06:24:27;;;;;;;30.40;16.75;;;;;;;10.57;100.00;98600.38;4354782;32;20073;-71
2022/09/25 06:26:53;;;;;;;30.92;17.17;;;;;;;10.76;100.00;98606.16;4396405;32;20061;-70
2022/09/25 06:29:19;;;;;;;32.25;16.85;;;;;;;10.71;100.00;98596.16;4397797;32;20071;-70
2022/09/25 06:31:47;;;;;;;26.48;16.08;;;;;;;10.73;100.00;98610.16;4382753;32;20035;-70
2022/09/25 06:34:14;;;;;;;27.85;15.90;;;;;;;11.07;100.00;98599.84;4383420;32;20034;-69
2022/09/25 06:36:41;;;;;;;26.60;15.88;;;;;;;10.74;100.00;98557.94;4371553;32;20423;-70
2022/09/25 06:39:07;;;;;;;29.75;15.52;;;;;;;11.12;100.00;98596.34;4365482;32;20069;-74
2022/09/25 06:41:34;;;;;;;31.25;16.30;;;;;;;11.26;100.00;98596.66;4366613;32;20051;-70
2022/09/25 06:44:01;;;;;;;29.00;16.58;;;;;;;11.19;100.00;98575.34;4369821;32;20425;-70
2022/09/25 06:46:27;;;;;;;29.33;15.80;;;;;;;11.12;100.00;98561.34;4377665;32;20048;-70
2022/09/25 06:48:56;;;;;;;33.13;17.15;;;;;;;11.42;100.00;98594.81;4340141;32;20036;-71
2022/09/25 06:51:24;;;;;;;27.52;15.35;;;;;;;11.32;100.00;98594.81;4337306;33;20426;-70
2022/09/25 06:53:52;;;;;;;27.37;15.48;;;;;;;11.30;100.00;98596.97;4353339;32;20085;-69
2022/09/25 06:56:19;;;;;;;27.52;15.18;;;;;;;10.99;100.00;98565.34;4352820;32;20065;-70
2022/09/25 06:58:46;;;;;;;28.73;15.18;;;;;;;11.40;100.00;98605.06;4352968;32;20066;-70
2022/09/25 07:01:13;;;;;;;27.42;16.12;;;;;;;11.18;100.00;98556.75;4351702;32;20420;-73
2022/09/25 07:03:47;;;;;;;31.05;16.75;;;;;;;11.23;100.00;98560.28;4362761;32;20078;-69
2022/09/25 07:06:16;;;;;;;27.58;15.80;;;;;;;11.54;100.00;98603.47;4367613;32;20047;-68
2022/09/25 07:08:44;;;;;;;31.17;17.30;;;;;;;11.40;100.00;98570.03;4371659;32;20071;-71
2022/09/25 07:11:25;;;;;;;28.30;15.70;;;;;;;11.77;100.00;98610.25;4372296;32;20190;-74
2022/09/25 07:13:53;;;;;;;32.67;16.02;;;;;;;11.69;100.00;98578.41;4362846;32;20051;-72
2022/09/25 07:16:22;;;;;;;25.42;14.95;;;;;;;11.99;100.00;98604.63;4351702;32;20116;-70
2022/09/25 07:18:52;;;;;;;28.48;13.40;;;;;;;12.12;100.00;98611.38;4359637;32;20428;-71
2022/09/25 07:21:21;;;;;;;27.35;15.55;;;;;;;11.67;100.00;98515.06;4407539;32;20060;-73
2022/09/25 07:23:48;;;;;;;26.23;15.07;;;;;;;12.29;100.00;98613.03;4411371;32;20160;-70
2022/09/25 07:26:20;;;;;;;23.40;14.82;;;;;;;12.35;100.00;98618.12;4393214;32;20022;-69
2022/09/25 07:28:54;;;;;;;;;;;;;;;12.41;100.00;98610.03;4393379;32;20203;-70
2022/09/25 07:31:31;;;;;;;26.75;13.80;;;;;;;12.56;100.00;98618.12;4390429;32;20728;-71
2022/09/25 07:34:04;;;;;;;23.08;12.82;;;;;;;12.43;100.00;98580.84;4375582;32;20043;-69
2022/09/25 07:36:31;;;;;;;24.55;12.93;;;;;;;12.35;100.00;98533.66;4379179;32;20031;-69
2022/09/25 07:38:57;;;;;;;21.70;12.15;;;;;;;12.92;100.00;98601.81;4375627;32;20555;-73
2022/09/25 07:41:25;;;;;;;21.17;11.88;;;;;;;13.13;100.00;98616.06;4380620;32;21057;-69
2022/09/25 07:43:57;;;;;;;23.35;12.25;;;;;;;13.16;100.00;98603.88;4350850;32;20051;-68
2022/09/25 07:46:24;;;;;;;18.48;11.43;;;;;;;12.86;100.00;98546.16;4327555;33;20039;-68
2022/09/25 07:48:51;;;;;;;21.45;13.18;;;;;;;13.38;100.00;98603.53;4322173;33;20070;-72
2022/09/25 07:51:18;;;;;;;20.67;12.88;;;;;;;13.20;100.00;98556.31;4326430;33;20077;-69
2022/09/25 07:53:44;;;;;;;24.00;12.32;;;;;;;13.18;100.00;98540.34;4333817;33;20036;-69
2022/09/25 07:56:11;;;;;;;19.55;11.85;;;;;;;13.61;100.00;98583.94;4322421;33;20040;-68
2022/09/25 07:58:38;;;;;;;13.82;9.40;;;;;;;13.70;100.00;98573.31;4338672;33;20454;-68
2022/09/25 08:01:08;;;;;;;15.93;9.23;;;;;;;13.88;100.00;98598.09;4335527;33;20054;-73
2022/09/25 08:03:35;;;;;;;14.35;9.07;;;;;;;14.00;100.00;98595.84;4311035;33;20082;-68
2022/09/25 08:06:05;;;;;;;11.18;6.87;;;;;;;14.11;100.00;98597.38;4308895;33;20090;-70
2022/09/25 08:08:33;;;;;;;16.67;7.22;;;;;;;14.16;100.00;98589.19;4309389;33;20397;-68
2022/09/25 08:11:05;;;;;;;11.45;7.12;;;;;;;14.58;100.00;98583.41;4303319;33;20114;-72
2022/09/25 08:13:33;;;;;;;7.57;5.63;;;;;;;14.38;100.00;98538.37;4293165;33;20045;-70
2022/09/25 08:16:12;;;;;;;5.80;4.87;;;;;;;14.80;100.00;98591.87;4293235;33;20081;-72
2022/09/25 08:18:40;;;;;;;9.23;5.07;;;;;;;14.75;100.00;98550.47;4291358;33;20112;-70
2022/09/25 08:21:09;;;;;;;7.57;4.55;;;;;;;14.94;100.00;98523.41;4293980;33;20037;-68
2022/09/25 08:23:35;;;;;;;6.72;5.07;;;;;;;15.40;100.00;98579.75;4303058;33;20834;-68
2022/09/25 08:26:01;;;;;;;6.45;4.72;;;;;;;15.07;100.00;98557.94;4314599;33;20052;-68
2022/09/25 08:28:28;;;;;;;15.48;5.32;;;;;;;14.68;100.00;98546.22;4322656;33;20021;-69
2022/09/25 08:30:57;;;;;;;7.62;4.22;;;;;;;15.08;100.00;98587.47;4320055;33;20028;-73
2022/09/25 08:33:24;;;;;;;4.20;3.80;;;;;;;14.74;100.00;98492.75;4324651;33;20052;-68
2022/09/25 08:35:59;;;;;;;7.70;4.62;;;;;;;15.22;100.00;98555.03;4351810;32;20048;-68
2022/09/25 08:38:27;;;;;;;6.40;4.95;;;;;;;15.45;100.00;98574.25;4339775;33;20048;-69
2022/09/25 08:41:23;;;;;;;4.45;3.80;;;;;;;15.45;100.00;98568.84;4336716;33;20058;-70
2022/09/25 08:43:56;;;;;;;8.48;5.10;;;;;;;15.48;100.00;98570.97;4334429;32;20069;-70
2022/09/25 08:49:25;;;;;;;8.18;5.20;;;;;;;14.70;100.00;98451.88;4339388;32;20058;-70
2022/09/25 08:51:57;;;;;;;6.40;5.30;;;;;;;15.43;100.00;98542.00;4338445;33;20099;-70
2022/09/25 08:54:26;;;;;;;7.78;5.18;;;;;;;15.08;100.00;98489.06;4346378;32;20397;-69
2022/09/25 08:57:15;;;;;;;7.97;5.62;;;;;;;15.49;100.00;98537.28;4384320;32;20427;-68
2022/09/25 08:59:46;;;;;;;10.25;6.87;;;;;;;15.45;100.00;98563.41;4397019;32;20487;-74
2022/09/25 09:02:18;;;;;;;11.27;6.50;;;;;;;15.25;100.00;98565.31;4412905;32;20041;-70
2022/09/25 09:04:52;;;;;;;8.30;5.72;;;;;;;15.47;100.00;98534.06;4392670;32;20046;-70
2022/09/25 09:07:37;;;;;;;8.52;4.65;;;;;;;15.81;100.00;98554.75;4343940;32;20043;-71
2022/09/25 09:10:09;;;;;;;9.20;4.93;;;;;;;15.81;100.00;98530.31;4332147;33;20093;-71
2022/09/25 09:12:40;;;;;;;;;;;;;;;16.04;100.00;98558.47;4333994;33;20535;-70
2022/09/25 09:15:53;;;;;;;7.43;4.93;;;;;;;16.10;100.00;98559.19;4332601;33;20419;-73
2022/09/25 09:18:28;;;;;;;5.90;4.45;;;;;;;15.85;100.00;98512.34;4330272;33;20040;-71
2022/09/25 09:20:57;;;;;;;10.05;5.10;;;;;;;15.92;100.00;98561.66;4332450;33;20068;-71
2022/09/25 09:23:32;;;;;;;7.97;5.03;;;;;;;15.75;100.00;98512.50;4319906;33;20277;-71
2022/09/25 09:26:00;;;;;;;7.43;5.40;;;;;;;16.14;100.00;98535.75;4320171;33;20082;-69
2022/09/25 09:29:16;;;;;;;9.27;4.55;;;;;;;16.30;100.00;98528.94;4322108;33;20066;-70
2022/09/25 09:31:55;;;;;;;9.73;5.03;;;;;;;16.39;100.00;98539.91;4305793;33;20112;-70
2022/09/25 09:34:31;;;;;;;7.35;5.00;;;;;;;16.33;100.00;98539.19;4291285;33;20041;-70
2022/09/25 09:37:17;;;;;;;9.32;5.30;;;;;;;16.03;100.00;98507.16;4277760;33;20061;-69
2022/09/25 09:40:08;;;;;;;6.28;5.32;;;;;;;16.20;100.00;98485.66;4289277;33;20059;-73
2022/09/25 09:43:13;;;;;;;11.55;5.43;;;;;;;16.24;100.00;98532.03;4323093;33;20102;-68
2022/09/25 09:45:52;;;;;;;6.18;4.90;;;;;;;16.45;100.00;98530.56;4322896;33;20048;-69
2022/09/25 09:48:41;;;;;;;11.45;6.07;;;;;;;16.51;100.00;98517.69;4320714;33;20063;-69
2022/09/25 09:51:24;;;;;;;7.20;5.62;;;;;;;16.34;100.00;98491.91;4322844;33;21030;-69
2022/09/25 09:54:15;;;;;;;10.75;5.70;;;;;;;16.61;100.00;98517.50;4325775;33;20429;-70
2022/09/25 09:56:48;;;;;;;5.75;5.00;;;;;;;16.49;100.00;98525.34;4352994;32;20075;-69
2022/09/25 09:59:38;;;;;;;13.62;6.45;;;;;;;16.84;100.00;98493.91;4350683;32;20332;-70
2022/09/25 10:02:25;;;;;;;10.75;6.12;;;;;;;16.47;100.00;98473.22;4350201;32;20427;-70
2022/09/25 10:04:54;;;;;;;8.75;5.95;;;;;;;17.03;100.00;98518.28;4357460;32;20073;-69
2022/09/25 10:07:22;;;;;;;8.68;6.00;;;;;;;17.11;100.00;98518.69;4386243;32;20027;-71
2022/09/25 10:09:59;;;;;;;13.55;5.80;;;;;;;17.25;100.00;98492.25;4396425;32;20742;-69
2022/09/25 10:12:41;;;;;;;7.35;5.32;;;;;;;17.36;100.00;98499.06;4393996;32;20061;-69
2022/09/25 10:15:37;;;;;;;9.50;6.18;;;;;;;17.17;100.00;98482.13;4399947;32;20082;-70
2022/09/25 10:18:05;;;;;;;11.23;5.28;;;;;;;17.43;100.00;98513.06;4379367;32;20084;-70
2022/09/25 10:20:50;;;;;;;11.32;5.43;;;;;;;17.42;100.00;98516.91;4381479;32;20120;-70
2022/09/25 10:23:54;;;;;;;11.27;6.22;;;;;;;17.49;100.00;98507.50;4372424;32;20078;-70
2022/09/25 10:26:29;;;;;;;7.18;5.40;;;;;;;17.86;100.00;98500.09;4304579;33;20052;-69
2022/09/25 10:29:01;;;;;;;9.52;5.12;;;;;;;17.91;100.00;98499.97;4305460;33;20116;-70
2022/09/25 10:31:39;;;;;;;6.60;5.35;;;;;;;17.78;100.00;98461.59;4305755;33;20110;-70
2022/09/25 10:34:21;;;;;;;9.05;5.07;;;;;;;17.98;100.00;98464.91;4272611;33;20057;-73
2022/09/25 10:36:52;;;;;;;8.48;5.30;;;;;;;18.18;92.15;98484.59;4274560;33;20056;-70
2022/09/25 10:39:37;;;;;;;6.50;5.00;;;;;;;18.07;89.81;98456.81;4278464;33;20049;-70
2022/09/25 10:42:38;;;;;;;8.15;5.75;;;;;;;18.00;82.71;98435.47;4288080;33;20797;-69
2022/09/25 10:45:21;;;;;;;10.15;5.82;;;;;;;18.38;88.81;98478.59;4289531;33;20049;-73
2022/09/25 10:50:38;;;;;;;7.60;5.68;;;;;;;18.04;90.35;98392.84;4324008;33;20067;-70
2022/09/25 10:53:06;;;;;;;7.18;5.18;;;;;;;18.76;87.50;98472.59;4303607;33;20033;-70
2022/09/25 10:55:36;;;;;;;12.18;5.53;;;;;;;18.87;85.94;98452.13;4306402;33;20800;-73
2022/09/25 10:58:05;;;;;;;6.35;5.37;;;;;;;18.66;79.52;98445.63;4299066;33;20034;-72
2022/09/25 11:00:41;;;;;;;8.18;5.22;;;;;;;18.72;77.87;98432.66;4307089;33;20237;-72
2022/09/25 11:03:19;;;;;;;6.87;4.25;;;;;;;19.62;71.02;98464.00;4315811;33;20524;-72
2022/09/25 11:05:54;;;;;;;6.32;4.65;;;;;;;19.92;71.71;98460.28;4345256;32;20093;-70
2022/09/25 11:08:23;;;;;;;8.70;4.75;;;;;;;19.74;64.81;98464.16;4348820;32;20114;-70
2022/09/25 11:10:56;;;;;;;7.82;4.90;;;;;;;19.52;66.40;98433.19;4364637;32;20042;-71
2022/09/25 11:13:26;;;;;;;4.60;4.12;;;;;;;19.84;67.42;98449.38;4372224;32;20061;-71
2022/09/25 11:15:58;;;;;;;6.82;4.03;;;;;;;20.16;62.90;98461.66;4375074;32;20042;-71
2022/09/25 11:18:36;;;;;;;9.70;3.83;;;;;;;21.09;60.21;98458.28;4369544;32;20093;-75
2022/09/25 11:21:04;;;;;;;5.57;4.18;;;;;;;21.76;52.44;98449.03;4372700;32;20065;-69
2022/09/25 11:24:16;;;;;;;4.70;3.87;;;;;;;21.86;49.50;98457.94;4373535;32;20035;-67
2022/09/25 11:26:49;;;;;;;;;;;;;;;21.95;53.13;98462.22;4388361;32;20062;-69
2022/09/25 11:29:25;;;;;;;7.78;4.50;;;;;;;21.81;49.12;98459.00;4402442;32;19959;-68
2022/09/25 11:32:09;;;;;;;5.03;3.95;;;;;;;21.52;52.53;98459.91;4399690;32;20121;-69
2022/09/25 11:35:07;;;;;;;3.90;3.50;;;;;;;21.34;53.25;98454.53;4397828;32;20396;-68
2022/09/25 11:37:52;;;;;;;5.28;4.37;;;;;;;20.85;55.00;98432.38;4370197;32;20445;-69
2022/09/25 11:43:27;;;;;;;6.53;5.50;;;;;;;20.34;60.95;98459.66;4401711;32;20088;-70
2022/09/25 11:46:01;;;;;;;6.85;4.15;;;;;;;19.26;59.34;98364.16;4402021;32;20533;-71
2022/09/25 11:48:53;;;;;;;6.07;4.32;;;;;;;19.13;61.81;98399.50;4413516;32;20446;-69
2022/09/25 11:51:23;;;;;;;;;;;;;;;19.80;65.08;98454.72;4416021;32;20103;-70
2022/09/25 11:54:02;;;;;;;7.75;4.20;;;;;;;20.07;70.11;98436.28;4413852;32;19934;-73
2022/09/25 11:56:28;;;;;;;5.45;4.07;;;;;;;20.41;69.24;98440.81;4415407;32;20068;-69
2022/09/25 11:59:00;;;;;;;8.70;4.78;;;;;;;20.33;64.84;98401.44;4415628;32;20199;-69